Terminal Aerodrome Forecast
Issued by NWS

Home | Current Version | Previous Version | Text Only | Print | Product List | Glossary On
Versions: 1 2 3 4 5 6 7 8 9 10 11 12 13 14 15 16 17 18 19 20 21 22 23 24 25 26 27 28 29 30 31 32 33 34 35 36 37 38 39 40 41 42 43 44
000
FTUS44 KHGX 240918 AAD
TAFUTS
TAF AMD
KUTS 240918Z 2409/2506 18006KT 6SM BR BKN008
      TEMPO 2409/2411 18010G20KT SCT008
     FM241500 23005KT P6SM SCT012
     FM241900 31011G18KT P6SM SKC=

USA.gov is the U.S. government's official web portal to all federal, state and local government web resources and services.